Time,TemperatureF,DewpointF,PressureIn,WindDirection,WindDirectionDegrees,WindSpeedMPH,WindSpeedGustMPH,Humidity,HourlyPrecipIn,Conditions,Clouds,dailyrainin,SoftwareType,DateUTC
2013-03-28 00:02:00,64.6,64.2,29.27,NW,315,0.0,2.0,99,0.02,,,0.45,meteohub,2013-03-28 10:02:00,
2013-03-28 00:07:00,64.6,64.2,29.28,East,90,2.0,2.0,99,0.05,,,0.02,meteohub,2013-03-28 10:07:00,
2013-03-28 00:12:00,64.4,64.0,29.27,East,90,4.0,4.0,99,0.12,,,0.11,meteohub,2013-03-28 10:12:00,
2013-03-28 00:17:00,64.4,64.0,29.28,NE,45,0.0,4.0,99,0.19,,,0.19,meteohub,2013-03-28 10:17:00,
2013-03-28 00:22:00,64.4,64.0,29.26,North,0,2.0,4.0,99,0.19,,,0.19,meteohub,2013-03-28 10:22:00,
2013-03-28 00:28:00,64.4,64.0,29.27,North,0,0.0,4.0,99,0.19,,,0.19,meteohub,2013-03-28 10:28:00,
2013-03-28 00:33:00,64.4,64.0,29.27,North,0,1.0,2.0,99,0.19,,,0.19,meteohub,2013-03-28 10:33:00,
2013-03-28 00:38:00,64.4,64.0,29.26,North,0,0.0,2.0,99,0.19,,,0.19,meteohub,2013-03-28 10:38:00,
2013-03-28 00:43:00,64.2,63.9,29.26,NE,45,2.0,2.0,99,0.19,,,0.19,meteohub,2013-03-28 10:43:00,
2013-03-28 00:48:00,64.2,63.9,29.26,NE,45,0.0,2.0,99,0.20,,,0.20,meteohub,2013-03-28 10:48:00,
2013-03-28 00:53:00,64.0,63.7,29.26,NE,45,1.0,2.0,99,0.20,,,0.20,meteohub,2013-03-28 10:53:00,
2013-03-28 00:58:00,64.0,63.7,29.26,NE,45,2.0,2.0,99,0.20,,,0.20,meteohub,2013-03-28 10:58:00,
2013-03-28 01:03:00,63.9,63.5,29.26,NE,45,0.0,2.0,99,0.20,,,0.20,meteohub,2013-03-28 11:03:00,
2013-03-28 01:08:00,63.9,63.5,29.25,NE,45,0.0,2.0,99,0.18,,,0.20,meteohub,2013-03-28 11:08:00,
2013-03-28 01:13:00,63.7,63.3,29.25,NE,45,0.0,2.0,99,0.04,,,0.20,meteohub,2013-03-28 11:13:00,
2013-03-28 01:18:00,63.7,63.3,29.25,NE,45,0.0,1.0,99,0.01,,,0.20,meteohub,2013-03-28 11:18:00,
2013-03-28 01:23:00,63.3,63.0,29.24,NE,45,0.0,1.0,99,0.01,,,0.20,meteohub,2013-03-28 11:23:00,
2013-03-28 01:28:00,63.1,62.8,29.25,NE,45,0.0,1.0,99,0.01,,,0.20,meteohub,2013-03-28 11:28:00,
2013-03-28 01:33:00,63.0,62.6,29.24,NE,45,0.0,0.0,99,0.01,,,0.20,meteohub,2013-03-28 11:33:00,
2013-03-28 01:38:00,63.0,62.6,29.24,NE,45,0.0,0.0,99,0.01,,,0.20,meteohub,2013-03-28 11:38:00,
2013-03-28 01:43:00,62.8,62.4,29.25,NE,45,0.0,0.0,99,0.00,,,0.20,meteohub,2013-03-28 11:43:00,
2013-03-28 01:48:00,62.6,62.2,29.24,NE,45,0.0,0.0,99,0.00,,,0.20,meteohub,2013-03-28 11:48:00,
2013-03-28 01:53:00,62.6,62.2,29.23,NE,45,0.0,0.0,99,0.00,,,0.20,meteohub,2013-03-28 11:53:00,
2013-03-28 01:58:00,62.4,62.1,29.23,NE,45,2.0,2.0,99,0.00,,,0.20,meteohub,2013-03-28 11:58:00,
2013-03-28 02:03:00,62.2,61.9,29.23,NE,45,0.0,2.0,99,0.00,,,0.20,meteohub,2013-03-28 12:03:00,
2013-03-28 02:08:00,62.2,61.9,29.23,NE,45,0.0,2.0,99,0.00,,,0.20,meteohub,2013-03-28 12:08:00,
2013-03-28 02:13:00,62.1,61.7,29.22,NE,45,2.0,2.0,99,0.00,,,0.20,meteohub,2013-03-28 12:13:00,
2013-03-28 02:18:00,61.9,61.5,29.23,NE,45,0.0,2.0,99,0.00,,,0.20,meteohub,2013-03-28 12:18:00,
2013-03-28 02:23:00,61.9,61.5,29.23,NE,45,1.0,2.0,99,0.00,,,0.20,meteohub,2013-03-28 12:23:00,
2013-03-28 02:28:00,61.7,61.3,29.24,NE,45,2.0,2.0,99,0.00,,,0.20,meteohub,2013-03-28 12:28:00,
2013-03-28 02:33:00,61.7,61.3,29.24,NE,45,1.0,2.0,99,0.00,,,0.20,meteohub,2013-03-28 12:33:00,
2013-03-28 02:38:00,61.7,61.3,29.23,NE,45,0.0,2.0,99,0.00,,,0.20,meteohub,2013-03-28 12:38:00,
2013-03-28 02:43:00,61.9,61.5,29.23,NE,45,0.0,2.0,99,0.00,,,0.20,meteohub,2013-03-28 12:43:00,
2013-03-28 02:48:00,61.9,61.5,29.23,NE,45,2.0,2.0,99,0.00,,,0.20,meteohub,2013-03-28 12:48:00,
2013-03-28 02:53:00,62.1,61.7,29.23,NE,45,0.0,2.0,99,0.00,,,0.20,meteohub,2013-03-28 12:53:00,
2013-03-28 02:58:00,62.2,61.9,29.23,NE,45,0.0,2.0,99,0.00,,,0.20,meteohub,2013-03-28 12:58:00,
2013-03-28 03:03:00,62.2,61.9,29.23,NE,45,0.0,2.0,99,0.00,,,0.20,meteohub,2013-03-28 13:03:00,
2013-03-28 03:08:00,62.4,62.1,29.23,NE,45,1.0,1.0,99,0.00,,,0.20,meteohub,2013-03-28 13:08:00,
2013-03-28 03:13:00,62.4,62.1,29.22,NE,45,0.0,1.0,99,0.00,,,0.20,meteohub,2013-03-28 13:13:00,
2013-03-28 03:18:00,62.4,62.1,29.23,East,90,4.0,4.0,99,0.00,,,0.20,meteohub,2013-03-28 13:18:00,
2013-03-28 03:23:00,62.4,62.1,29.23,NE,45,2.0,4.0,99,0.00,,,0.20,meteohub,2013-03-28 13:23:00,
2013-03-28 03:28:00,62.2,61.9,29.23,East,90,2.0,4.0,99,0.00,,,0.20,meteohub,2013-03-28 13:28:00,
2013-03-28 03:34:00,62.2,61.9,29.23,NE,45,2.0,4.0,99,0.00,,,0.20,meteohub,2013-03-28 13:34:00,
2013-03-28 03:39:00,62.1,61.7,29.23,NE,45,2.0,4.0,99,0.00,,,0.20,meteohub,2013-03-28 13:39:00,
2013-03-28 03:44:00,62.1,61.7,29.23,NE,45,2.0,4.0,99,0.00,,,0.20,meteohub,2013-03-28 13:44:00,
2013-03-28 03:49:00,61.9,61.5,29.23,NE,45,0.0,4.0,99,0.00,,,0.20,meteohub,2013-03-28 13:49:00,
2013-03-28 03:54:00,61.7,61.3,29.23,NE,45,1.0,2.0,99,0.00,,,0.20,meteohub,2013-03-28 13:54:00,
2013-03-28 03:59:00,61.3,61.0,29.23,NE,45,2.0,2.0,99,0.00,,,0.20,meteohub,2013-03-28 13:59:00,
2013-03-28 04:04:00,61.3,61.0,29.23,NE,45,1.0,3.0,99,0.00,,,0.20,meteohub,2013-03-28 14:04:00,
2013-03-28 04:09:00,61.5,61.2,29.23,NE,45,2.0,3.0,99,0.00,,,0.20,meteohub,2013-03-28 14:09:00,
2013-03-28 04:14:00,61.7,61.3,29.23,NE,45,0.0,3.0,99,0.00,,,0.20,meteohub,2013-03-28 14:14:00,
2013-03-28 04:19:00,61.9,61.5,29.23,NE,45,2.0,2.0,99,0.00,,,0.20,meteohub,2013-03-28 14:19:00,
2013-03-28 04:24:00,62.1,61.7,29.23,NE,45,2.0,2.0,99,0.00,,,0.20,meteohub,2013-03-28 14:24:00,
2013-03-28 04:29:00,62.4,62.1,29.23,NE,45,2.0,2.0,99,0.00,,,0.20,meteohub,2013-03-28 14:29:00,
2013-03-28 04:34:00,62.6,62.2,29.23,NE,45,2.0,2.0,99,0.00,,,0.20,meteohub,2013-03-28 14:34:00,
2013-03-28 04:39:00,62.8,62.4,29.23,NE,45,2.0,2.0,99,0.00,,,0.20,meteohub,2013-03-28 14:39:00,
2013-03-28 04:44:00,63.1,62.8,29.24,NE,45,2.0,2.0,99,0.00,,,0.20,meteohub,2013-03-28 14:44:00,
2013-03-28 04:49:00,63.3,63.0,29.23,NE,45,2.0,2.0,99,0.00,,,0.20,meteohub,2013-03-28 14:49:00,
2013-03-28 04:54:00,63.5,63.1,29.23,NE,45,3.0,3.0,99,0.00,,,0.20,meteohub,2013-03-28 14:54:00,
2013-03-28 04:59:00,63.5,63.1,29.23,NE,45,2.0,3.0,99,0.00,,,0.20,meteohub,2013-03-28 14:59:00,
2013-03-28 05:04:00,63.7,63.3,29.23,NE,45,2.0,3.0,99,0.00,,,0.20,meteohub,2013-03-28 15:04:00,
2013-03-28 05:09:00,63.5,63.1,29.23,NE,45,3.0,3.0,99,0.00,,,0.20,meteohub,2013-03-28 15:09:00,
2013-03-28 05:14:00,63.5,63.1,29.23,NE,45,0.0,3.0,99,0.00,,,0.20,meteohub,2013-03-28 15:14:00,
2013-03-28 05:19:00,63.5,63.1,29.23,NE,45,2.0,3.0,99,0.00,,,0.20,meteohub,2013-03-28 15:19:00,
2013-03-28 05:24:00,63.5,63.1,29.24,NE,45,2.0,3.0,99,0.00,,,0.20,meteohub,2013-03-28 15:24:00,
2013-03-28 05:29:00,63.3,63.0,29.24,NE,45,2.0,2.0,99,0.00,,,0.20,meteohub,2013-03-28 15:29:00,
2013-03-28 05:34:00,63.1,62.8,29.24,NE,45,2.0,2.0,99,0.00,,,0.20,meteohub,2013-03-28 15:34:00,
2013-03-28 05:39:00,63.0,62.6,29.24,NE,45,1.0,2.0,99,0.00,,,0.20,meteohub,2013-03-28 15:39:00,
2013-03-28 05:44:00,63.0,62.6,29.24,NE,45,1.0,2.0,99,0.00,,,0.20,meteohub,2013-03-28 15:44:00,
2013-03-28 05:49:00,62.8,62.4,29.24,NE,45,2.0,2.0,99,0.00,,,0.20,meteohub,2013-03-28 15:49:00,
2013-03-28 05:54:00,62.8,62.4,29.24,NE,45,2.0,2.0,99,0.00,,,0.20,meteohub,2013-03-28 15:54:00,
2013-03-28 05:59:00,62.8,62.4,29.24,NE,45,2.0,2.0,99,0.00,,,0.20,meteohub,2013-03-28 15:59:00,
2013-03-28 06:04:00,62.6,62.2,29.24,NE,45,2.0,2.0,99,0.00,,,0.20,meteohub,2013-03-28 16:04:00,
2013-03-28 06:09:00,62.4,62.1,29.24,NE,45,2.0,2.0,99,0.00,,,0.20,meteohub,2013-03-28 16:09:00,
2013-03-28 06:14:00,62.2,61.9,29.24,NE,45,2.0,2.0,99,0.00,,,0.20,meteohub,2013-03-28 16:14:00,
2013-03-28 06:19:00,62.2,61.9,29.25,NE,45,2.0,3.0,99,0.00,,,0.20,meteohub,2013-03-28 16:19:00,
2013-03-28 06:24:00,62.2,61.9,29.25,NE,45,2.0,3.0,99,0.00,,,0.20,meteohub,2013-03-28 16:24:00,
2013-03-28 06:29:00,62.2,61.9,29.25,NE,45,2.0,3.0,99,0.00,,,0.20,meteohub,2013-03-28 16:29:00,
2013-03-28 06:34:00,62.2,61.9,29.25,NE,45,2.0,2.0,99,0.00,,,0.20,meteohub,2013-03-28 16:34:00,
2013-03-28 06:39:00,62.4,62.1,29.25,NE,45,1.0,2.0,99,0.00,,,0.20,meteohub,2013-03-28 16:39:00,
2013-03-28 06:44:00,62.4,62.1,29.25,NE,45,2.0,2.0,99,0.00,,,0.20,meteohub,2013-03-28 16:44:00,
2013-03-28 06:49:00,62.8,62.4,29.26,NE,45,2.0,2.0,99,0.00,,,0.20,meteohub,2013-03-28 16:49:00,
2013-03-28 06:54:00,63.0,62.6,29.26,NE,45,2.0,2.0,99,0.00,,,0.20,meteohub,2013-03-28 16:54:00,
2013-03-28 06:59:00,63.1,62.8,29.26,NE,45,2.0,2.0,99,0.00,,,0.20,meteohub,2013-03-28 16:59:00,
2013-03-28 07:04:00,63.3,63.0,29.26,NE,45,2.0,2.0,99,0.00,,,0.20,meteohub,2013-03-28 17:04:00,
2013-03-28 07:09:00,63.3,63.0,29.26,NE,45,2.0,2.0,99,0.00,,,0.20,meteohub,2013-03-28 17:09:00,
2013-03-28 07:14:00,63.5,63.1,29.26,NE,45,2.0,2.0,99,0.00,,,0.20,meteohub,2013-03-28 17:14:00,
2013-03-28 07:19:00,63.7,63.3,29.27,NE,45,1.0,2.0,99,0.00,,,0.20,meteohub,2013-03-28 17:19:00,
2013-03-28 07:24:00,63.9,63.5,29.27,NE,45,2.0,3.0,99,0.00,,,0.20,meteohub,2013-03-28 17:24:00,
2013-03-28 07:29:00,64.0,63.7,29.27,NE,45,2.0,3.0,99,0.00,,,0.20,meteohub,2013-03-28 17:29:00,
2013-03-28 07:35:00,64.4,64.0,29.27,North,-999,-999.0,3.0,99,0.00,,,0.20,meteohub,2013-03-28 17:35:00,
2013-03-28 07:40:00,64.8,64.4,29.26,North,-999,-999.0,3.0,99,0.00,,,0.20,meteohub,2013-03-28 17:40:00,
2013-03-28 07:45:00,64.9,64.6,29.27,North,-999,-999.0,2.0,99,0.00,,,0.20,meteohub,2013-03-28 17:45:00,
2013-03-28 07:50:00,65.3,64.9,29.26,North,-999,-999.0,-999.0,99,0.00,,,0.20,meteohub,2013-03-28 17:50:00,
2013-03-28 07:55:00,65.5,65.1,29.27,North,-999,-999.0,-999.0,99,0.00,,,0.20,meteohub,2013-03-28 17:55:00,
2013-03-28 08:00:00,65.7,65.3,29.27,North,-999,-999.0,-999.0,99,0.00,,,0.20,meteohub,2013-03-28 18:00:00,
2013-03-28 08:05:00,66.0,65.7,29.27,North,-999,-999.0,-999.0,99,0.00,,,0.20,meteohub,2013-03-28 18:05:00,
2013-03-28 08:10:00,66.2,65.8,29.27,SE,135,1.0,-999.0,99,0.00,,,0.20,meteohub,2013-03-28 18:10:00,
2013-03-28 08:15:00,66.6,66.2,29.27,SE,135,0.0,2.0,99,0.00,,,0.20,meteohub,2013-03-28 18:15:00,
2013-03-28 08:20:00,66.9,66.6,29.27,SE,135,0.0,2.0,99,0.00,,,0.20,meteohub,2013-03-28 18:20:00,
2013-03-28 08:25:00,66.9,66.6,29.27,SE,135,0.0,2.0,99,0.00,,,0.20,meteohub,2013-03-28 18:25:00,
2013-03-28 08:30:00,66.9,66.6,29.27,SE,135,1.0,1.0,99,0.00,,,0.20,meteohub,2013-03-28 18:30:00,
2013-03-28 08:35:00,66.7,66.4,29.27,East,90,3.0,3.0,99,0.00,,,0.21,meteohub,2013-03-28 18:35:00,
2013-03-28 08:40:00,66.6,66.2,29.28,East,90,2.0,2.0,99,0.01,,,0.21,meteohub,2013-03-28 18:40:00,
2013-03-28 08:45:00,66.6,66.2,29.29,East,90,1.0,3.0,99,0.01,,,0.21,meteohub,2013-03-28 18:45:00,
2013-03-28 08:50:00,66.9,66.6,29.28,East,90,0.0,3.0,99,0.01,,,0.21,meteohub,2013-03-28 18:50:00,
2013-03-28 08:55:00,67.5,67.1,29.29,East,90,1.0,2.0,99,0.01,,,0.21,meteohub,2013-03-28 18:55:00,
2013-03-28 09:00:00,67.8,67.5,29.28,East,90,2.0,2.0,99,0.01,,,0.21,meteohub,2013-03-28 19:00:00,
2013-03-28 09:05:00,68.2,67.8,29.28,SE,135,2.0,2.0,99,0.01,,,0.21,meteohub,2013-03-28 19:05:00,
2013-03-28 09:10:00,68.7,68.4,29.28,SE,135,3.0,3.0,99,0.01,,,0.21,meteohub,2013-03-28 19:10:00,
2013-03-28 09:15:00,68.7,68.4,29.28,SE,135,3.0,3.0,99,0.01,,,0.21,meteohub,2013-03-28 19:15:00,
2013-03-28 09:20:00,68.9,68.5,29.28,SE,135,2.0,4.0,99,0.01,,,0.21,meteohub,2013-03-28 19:20:00,
2013-03-28 09:25:00,69.1,68.7,29.28,SE,135,2.0,4.0,99,0.01,,,0.21,meteohub,2013-03-28 19:25:00,
2013-03-28 09:30:00,69.3,68.9,29.28,SE,135,2.0,4.0,99,0.01,,,0.21,meteohub,2013-03-28 19:30:00,
2013-03-28 09:35:00,69.6,69.1,29.28,South,180,2.0,4.0,98,0.00,,,0.21,meteohub,2013-03-28 19:35:00,
2013-03-28 09:40:00,70.3,68.9,29.28,West,270,2.0,4.0,95,0.00,,,0.21,meteohub,2013-03-28 19:40:00,
2013-03-28 09:45:00,70.9,69.4,29.28,South,180,1.0,3.0,95,0.00,,,0.21,meteohub,2013-03-28 19:45:00,
2013-03-28 09:50:00,71.2,68.5,29.29,South,180,2.0,3.0,91,0.00,,,0.21,meteohub,2013-03-28 19:50:00,
2013-03-28 09:55:00,71.6,69.4,29.29,SW,225,1.0,3.0,93,0.00,,,0.21,meteohub,2013-03-28 19:55:00,
2013-03-28 10:00:00,71.8,69.1,29.28,SW,225,1.0,3.0,91,0.00,,,0.21,meteohub,2013-03-28 20:00:00,
2013-03-28 10:05:00,72.3,69.8,29.28,NW,315,3.0,4.0,92,0.00,,,0.21,meteohub,2013-03-28 20:05:00,
2013-03-28 10:10:00,72.7,69.6,29.29,South,180,2.0,4.0,90,0.00,,,0.21,meteohub,2013-03-28 20:10:00,
2013-03-28 10:15:00,72.9,69.4,29.28,West,270,2.0,4.0,89,0.00,,,0.21,meteohub,2013-03-28 20:15:00,
2013-03-28 10:20:00,72.5,68.7,29.28,SE,135,2.0,4.0,88,0.00,,,0.21,meteohub,2013-03-28 20:20:00,
2013-03-28 10:25:00,72.3,68.5,29.28,East,90,4.0,4.0,88,0.00,,,0.21,meteohub,2013-03-28 20:25:00,
2013-03-28 10:30:00,72.9,68.7,29.28,South,180,3.0,4.0,87,0.00,,,0.21,meteohub,2013-03-28 20:30:00,
2013-03-28 10:35:00,74.7,69.4,29.27,South,180,5.0,8.0,84,0.00,,,0.21,meteohub,2013-03-28 20:35:00,
2013-03-28 10:41:00,73.9,68.7,29.27,West,270,4.0,8.0,84,0.00,,,0.21,meteohub,2013-03-28 20:41:00,
2013-03-28 10:46:00,73.0,68.2,29.27,East,90,4.0,8.0,85,0.00,,,0.21,meteohub,2013-03-28 20:46:00,
2013-03-28 10:51:00,73.0,68.5,29.26,SE,135,4.0,7.0,86,0.00,,,0.21,meteohub,2013-03-28 20:51:00,
2013-03-28 10:56:00,72.9,68.4,29.27,South,180,2.0,6.0,86,0.00,,,0.21,meteohub,2013-03-28 20:56:00,
2013-03-28 11:01:00,72.0,68.2,29.27,South,180,2.0,8.0,88,0.00,,,0.21,meteohub,2013-03-28 21:01:00,
2013-03-28 11:06:00,71.6,68.2,29.26,SE,135,2.0,8.0,89,0.00,,,0.21,meteohub,2013-03-28 21:06:00,
2013-03-28 11:11:00,71.4,68.4,29.26,SE,135,2.0,8.0,90,0.00,,,0.21,meteohub,2013-03-28 21:11:00,
2013-03-28 11:16:00,72.7,70.0,29.26,South,180,4.0,8.0,91,0.00,,,0.21,meteohub,2013-03-28 21:16:00,
2013-03-28 11:22:00,74.1,70.3,29.26,SE,135,4.0,4.0,88,0.00,,,0.21,meteohub,2013-03-28 21:22:00,
2013-03-28 11:27:00,73.6,68.7,29.26,SE,135,4.0,6.0,85,0.00,,,0.21,meteohub,2013-03-28 21:27:00,
2013-03-28 11:32:00,72.7,68.2,29.25,East,90,4.0,6.0,86,0.00,,,0.21,meteohub,2013-03-28 21:32:00,
2013-03-28 11:37:00,73.4,69.3,29.26,West,270,4.0,6.0,87,0.00,,,0.21,meteohub,2013-03-28 21:37:00,
2013-03-28 11:42:00,73.4,68.0,29.25,South,180,5.0,7.0,83,0.00,,,0.21,meteohub,2013-03-28 21:42:00,
2013-03-28 11:47:00,72.7,67.3,29.25,SW,225,8.0,8.0,83,0.00,,,0.21,meteohub,2013-03-28 21:47:00,
2013-03-28 11:52:00,72.9,67.5,29.25,East,90,3.0,10.0,83,0.00,,,0.21,meteohub,2013-03-28 21:52:00,
2013-03-28 11:57:00,74.3,69.1,29.24,West,270,2.0,10.0,84,0.00,,,0.21,meteohub,2013-03-28 21:57:00,
2013-03-28 12:02:00,75.4,68.4,29.24,SE,135,4.0,10.0,79,0.00,,,0.21,meteohub,2013-03-28 22:02:00,
2013-03-28 12:07:00,75.2,68.5,29.24,NW,315,3.0,8.0,80,0.00,,,0.21,meteohub,2013-03-28 22:07:00,
2013-03-28 12:12:00,76.6,70.0,29.24,West,270,3.0,6.0,80,0.00,,,0.21,meteohub,2013-03-28 22:12:00,
2013-03-28 12:17:00,77.7,70.0,29.24,SE,135,5.0,6.0,77,0.00,,,0.21,meteohub,2013-03-28 22:17:00,
2013-03-28 12:22:00,77.2,69.1,29.24,South,180,7.0,8.0,76,0.01,,,0.22,meteohub,2013-03-28 22:22:00,
2013-03-28 12:27:00,77.4,68.0,29.23,SE,135,4.0,8.0,73,0.01,,,0.22,meteohub,2013-03-28 22:27:00,
2013-03-28 12:32:00,78.3,69.6,29.23,South,180,3.0,10.0,75,0.01,,,0.22,meteohub,2013-03-28 22:32:00,
2013-03-28 12:37:00,78.8,70.2,29.23,SE,135,3.0,10.0,75,0.01,,,0.22,meteohub,2013-03-28 22:37:00,
2013-03-28 12:42:00,78.6,69.3,29.23,NE,45,2.0,10.0,73,0.01,,,0.22,meteohub,2013-03-28 22:42:00,
2013-03-28 12:47:00,79.0,70.3,29.23,NW,315,4.0,5.0,75,0.01,,,0.22,meteohub,2013-03-28 22:47:00,
2013-03-28 12:52:00,78.4,69.8,29.23,West,270,3.0,5.0,75,0.01,,,0.22,meteohub,2013-03-28 22:52:00,
2013-03-28 12:57:00,77.5,69.8,29.23,South,180,2.0,4.0,77,0.01,,,0.22,meteohub,2013-03-28 22:57:00,
2013-03-28 13:02:00,76.1,69.1,29.23,East,90,4.0,7.0,79,0.01,,,0.22,meteohub,2013-03-28 23:02:00,
2013-03-28 13:07:00,75.0,68.7,29.23,North,0,4.0,7.0,81,0.01,,,0.22,meteohub,2013-03-28 23:07:00,
2013-03-28 13:12:00,74.5,68.5,29.23,SE,135,4.0,9.0,82,0.01,,,0.22,meteohub,2013-03-28 23:12:00,
2013-03-28 13:17:00,75.4,69.4,29.22,North,0,2.0,9.0,82,0.01,,,0.22,meteohub,2013-03-28 23:17:00,
2013-03-28 13:22:00,75.6,69.6,29.22,SE,135,2.0,9.0,82,0.00,,,0.22,meteohub,2013-03-28 23:22:00,
2013-03-28 13:27:00,75.7,69.4,29.22,South,180,3.0,8.0,81,0.00,,,0.22,meteohub,2013-03-28 23:27:00,
2013-03-28 13:32:00,74.1,68.2,29.22,SE,135,11.0,11.0,82,0.00,,,0.22,meteohub,2013-03-28 23:32:00,
2013-03-28 13:37:00,73.9,68.4,29.21,East,90,3.0,11.0,83,0.00,,,0.22,meteohub,2013-03-28 23:37:00,
2013-03-28 13:42:00,73.8,68.9,29.21,South,180,3.0,11.0,85,0.00,,,0.22,meteohub,2013-03-28 23:42:00,
2013-03-28 13:47:00,72.7,68.2,29.21,SE,135,7.0,11.0,86,0.00,,,0.22,meteohub,2013-03-28 23:47:00,
2013-03-28 13:52:00,72.0,68.2,29.21,SE,135,2.0,9.0,88,0.00,,,0.22,meteohub,2013-03-28 23:52:00,
2013-03-28 13:57:00,72.3,69.3,29.21,SW,225,3.0,9.0,90,0.00,,,0.22,meteohub,2013-03-28 23:57:00,
2013-03-28 14:02:00,72.9,69.8,29.20,SE,135,2.0,7.0,90,0.00,,,0.22,meteohub,2013-03-29 00:02:00,
2013-03-28 14:07:00,72.9,69.4,29.20,West,270,2.0,5.0,89,0.00,,,0.22,meteohub,2013-03-29 00:07:00,
2013-03-28 14:12:00,72.9,69.4,29.20,East,90,5.0,5.0,89,0.00,,,0.22,meteohub,2013-03-29 00:12:00,
2013-03-28 14:17:00,73.2,69.8,29.20,NW,315,2.0,5.0,89,0.00,,,0.22,meteohub,2013-03-29 00:17:00,
2013-03-28 14:22:00,72.3,68.9,29.20,SE,135,4.0,5.0,89,0.00,,,0.22,meteohub,2013-03-29 00:22:00,
2013-03-28 14:27:00,71.6,68.2,29.20,East,90,4.0,7.0,89,0.00,,,0.22,meteohub,2013-03-29 00:27:00,
2013-03-28 14:32:00,71.8,68.4,29.20,North,0,3.0,7.0,89,0.00,,,0.22,meteohub,2013-03-29 00:32:00,
2013-03-28 14:37:00,72.0,67.8,29.21,SE,135,9.0,9.0,87,0.00,,,0.22,meteohub,2013-03-29 00:37:00,
2013-03-28 14:42:00,73.0,68.9,29.20,SE,135,4.0,9.0,87,0.00,,,0.22,meteohub,2013-03-29 00:42:00,
2013-03-28 14:47:00,75.0,69.8,29.20,SW,225,4.0,9.0,84,0.00,,,0.22,meteohub,2013-03-29 00:47:00,
2013-03-28 14:52:00,76.8,70.5,29.20,NE,45,2.0,9.0,81,0.00,,,0.22,meteohub,2013-03-29 00:52:00,
2013-03-28 14:57:00,77.0,69.6,29.20,South,180,2.0,8.0,78,0.00,,,0.22,meteohub,2013-03-29 00:57:00,
2013-03-28 15:03:00,76.6,68.9,29.19,East,90,3.0,8.0,77,0.00,,,0.22,meteohub,2013-03-29 01:03:00,
2013-03-28 15:08:00,75.9,68.2,29.19,West,270,4.0,8.0,77,0.00,,,0.22,meteohub,2013-03-29 01:08:00,
2013-03-28 15:13:00,75.6,67.5,29.19,SE,135,2.0,11.0,76,0.00,,,0.22,meteohub,2013-03-29 01:13:00,
2013-03-28 15:18:00,75.6,68.2,29.19,SE,135,6.0,11.0,78,0.00,,,0.22,meteohub,2013-03-29 01:18:00,
2013-03-28 15:23:00,77.0,69.3,29.19,West,270,3.0,11.0,77,0.00,,,0.22,meteohub,2013-03-29 01:23:00,
2013-03-28 15:28:00,78.3,69.3,29.19,West,270,4.0,6.0,74,0.00,,,0.22,meteohub,2013-03-29 01:28:00,
2013-03-28 15:33:00,77.0,68.9,29.19,NW,315,3.0,6.0,76,0.00,,,0.22,meteohub,2013-03-29 01:33:00,
2013-03-28 15:38:00,75.9,67.8,29.18,NW,315,1.0,6.0,76,0.00,,,0.22,meteohub,2013-03-29 01:38:00,
2013-03-28 15:43:00,77.2,69.1,29.18,West,270,2.0,6.0,76,0.00,,,0.22,meteohub,2013-03-29 01:43:00,
2013-03-28 15:48:00,77.4,68.0,29.18,SE,135,6.0,6.0,73,0.00,,,0.22,meteohub,2013-03-29 01:48:00,
2013-03-28 15:53:00,76.8,68.4,29.18,West,270,2.0,9.0,75,0.00,,,0.22,meteohub,2013-03-29 01:53:00,
2013-03-28 15:58:00,76.8,68.4,29.18,East,90,3.0,9.0,75,0.00,,,0.22,meteohub,2013-03-29 01:58:00,
2013-03-28 16:03:00,76.6,68.2,29.18,SW,225,4.0,9.0,75,0.00,,,0.22,meteohub,2013-03-29 02:03:00,
2013-03-28 16:08:00,76.3,68.2,29.17,South,180,3.0,6.0,76,0.00,,,0.22,meteohub,2013-03-29 02:08:00,
2013-03-28 16:13:00,75.6,68.2,29.18,SW,225,3.0,4.0,78,0.00,,,0.22,meteohub,2013-03-29 02:13:00,
2013-03-28 16:18:00,74.3,66.9,29.18,North,0,5.0,7.0,78,0.00,,,0.22,meteohub,2013-03-29 02:18:00,
2013-03-28 16:23:00,73.6,66.4,29.17,NW,315,2.0,7.0,78,0.00,,,0.22,meteohub,2013-03-29 02:23:00,
2013-03-28 16:28:00,73.2,66.4,29.18,SE,135,3.0,7.0,79,0.00,,,0.22,meteohub,2013-03-29 02:28:00,
2013-03-28 16:33:00,72.7,66.2,29.17,NW,315,2.0,5.0,80,0.00,,,0.22,meteohub,2013-03-29 02:33:00,
2013-03-28 16:38:00,72.3,65.8,29.18,West,270,2.0,6.0,80,0.00,,,0.22,meteohub,2013-03-29 02:38:00,
2013-03-28 16:43:00,72.3,66.2,29.18,SE,135,4.0,6.0,81,0.00,,,0.22,meteohub,2013-03-29 02:43:00,
2013-03-28 16:48:00,72.1,66.4,29.18,East,90,1.0,6.0,82,0.00,,,0.22,meteohub,2013-03-29 02:48:00,
2013-03-28 16:53:00,72.1,66.0,29.18,South,180,3.0,4.0,81,0.00,,,0.22,meteohub,2013-03-29 02:53:00,
2013-03-28 16:58:00,71.8,66.0,29.18,North,0,2.0,4.0,82,0.00,,,0.22,meteohub,2013-03-29 02:58:00,
2013-03-28 17:03:00,71.8,65.3,29.18,SE,135,3.0,4.0,80,0.00,,,0.22,meteohub,2013-03-29 03:03:00,
2013-03-28 17:08:00,71.6,65.1,29.18,West,270,3.0,4.0,80,0.00,,,0.22,meteohub,2013-03-29 03:08:00,
2013-03-28 17:13:00,71.6,65.1,29.18,South,180,5.0,5.0,80,0.00,,,0.22,meteohub,2013-03-29 03:13:00,
2013-03-28 17:18:00,71.8,65.7,29.18,North,0,2.0,4.0,81,0.00,,,0.22,meteohub,2013-03-29 03:18:00,
2013-03-28 17:23:00,72.1,65.7,29.18,NW,315,1.0,5.0,80,0.00,,,0.22,meteohub,2013-03-29 03:23:00,
2013-03-28 17:28:00,72.3,66.2,29.18,SE,135,2.0,5.0,81,0.00,,,0.22,meteohub,2013-03-29 03:28:00,
2013-03-28 17:33:00,72.0,65.5,29.18,East,90,1.0,2.0,80,0.00,,,0.22,meteohub,2013-03-29 03:33:00,
2013-03-28 17:39:00,71.6,65.5,29.19,SE,135,2.0,2.0,81,0.00,,,0.22,meteohub,2013-03-29 03:39:00,
2013-03-28 17:44:00,71.1,65.3,29.19,SE,135,2.0,2.0,82,0.00,,,0.22,meteohub,2013-03-29 03:44:00,
2013-03-28 17:49:00,70.3,64.9,29.19,West,270,4.0,4.0,83,0.00,,,0.22,meteohub,2013-03-29 03:49:00,
2013-03-28 17:54:00,70.2,65.1,29.19,SW,225,2.0,5.0,84,0.00,,,0.22,meteohub,2013-03-29 03:54:00,
2013-03-28 17:59:00,70.2,65.1,29.19,West,270,2.0,5.0,84,0.00,,,0.22,meteohub,2013-03-29 03:59:00,
2013-03-28 18:00:00,70.2,65.1,29.19,West,270,2.0,5.0,84,0.00,,,0.22,meteohub,2013-03-29 04:00:00,
2013-03-28 18:05:00,70.3,65.3,29.20,West,270,2.0,2.0,84,0.00,,,0.22,meteohub,2013-03-29 04:05:00,
2013-03-28 18:10:00,70.2,65.1,29.20,West,270,3.0,4.0,84,0.00,,,0.22,meteohub,2013-03-29 04:10:00,
2013-03-28 18:15:00,69.8,64.8,29.21,West,270,3.0,4.0,84,0.00,,,0.22,meteohub,2013-03-29 04:15:00,
2013-03-28 18:20:00,69.4,64.8,29.21,NW,315,2.0,4.0,85,0.00,,,0.22,meteohub,2013-03-29 04:20:00,
2013-03-28 18:25:00,69.3,64.9,29.21,West,270,2.0,3.0,86,0.00,,,0.22,meteohub,2013-03-29 04:25:00,
2013-03-28 18:30:00,69.1,65.1,29.21,West,270,2.0,3.0,87,0.00,,,0.22,meteohub,2013-03-29 04:30:00,
2013-03-28 18:35:00,68.9,65.1,29.21,West,270,2.0,3.0,88,0.00,,,0.22,meteohub,2013-03-29 04:35:00,
2013-03-28 18:40:00,68.7,64.9,29.22,West,270,2.0,3.0,88,0.00,,,0.22,meteohub,2013-03-29 04:40:00,
2013-03-28 18:45:00,68.7,64.9,29.21,NE,45,1.0,3.0,88,0.00,,,0.22,meteohub,2013-03-29 04:45:00,
2013-03-28 18:51:00,68.5,65.1,29.22,NE,45,0.0,2.0,89,0.00,,,0.22,meteohub,2013-03-29 04:51:00,
2013-03-28 18:56:00,68.5,65.1,29.22,NE,45,0.0,2.0,89,0.00,,,0.22,meteohub,2013-03-29 04:56:00,
2013-03-28 19:01:00,68.4,65.3,29.22,NE,45,1.0,2.0,90,0.00,,,0.22,meteohub,2013-03-29 05:01:00,
2013-03-28 19:06:00,68.2,65.5,29.23,NE,45,1.0,2.0,91,0.00,,,0.22,meteohub,2013-03-29 05:06:00,
2013-03-28 19:11:00,68.0,65.3,29.22,NE,45,1.0,2.0,91,0.00,,,0.22,meteohub,2013-03-29 05:11:00,
2013-03-28 19:16:00,68.0,65.7,29.23,NE,45,2.0,2.0,92,0.00,,,0.22,meteohub,2013-03-29 05:16:00,
2013-03-28 19:21:00,67.6,65.5,29.23,NE,45,1.0,2.0,93,0.00,,,0.22,meteohub,2013-03-29 05:21:00,
2013-03-28 19:26:00,67.5,65.7,29.23,NE,45,1.0,2.0,94,0.00,,,0.22,meteohub,2013-03-29 05:26:00,
2013-03-28 19:31:00,67.3,65.8,29.23,NE,45,2.0,2.0,95,0.00,,,0.22,meteohub,2013-03-29 05:31:00,
2013-03-28 19:36:00,66.9,65.7,29.24,NE,45,2.0,2.0,96,0.00,,,0.22,meteohub,2013-03-29 05:36:00,
2013-03-28 19:42:00,66.6,65.7,29.23,NE,45,2.0,2.0,97,0.00,,,0.22,meteohub,2013-03-29 05:42:00,
2013-03-28 19:47:00,66.4,65.8,29.23,NE,45,2.0,2.0,98,0.00,,,0.22,meteohub,2013-03-29 05:47:00,
2013-03-28 19:52:00,66.2,65.7,29.24,NE,45,2.0,2.0,98,0.00,,,0.22,meteohub,2013-03-29 05:52:00,
2013-03-28 19:57:00,66.0,65.7,29.24,NE,45,2.0,2.0,99,0.00,,,0.22,meteohub,2013-03-29 05:57:00,
2013-03-28 20:02:00,65.8,65.5,29.24,NE,45,2.0,2.0,99,0.00,,,0.22,meteohub,2013-03-29 06:02:00,
2013-03-28 20:07:00,65.7,65.3,29.24,NE,45,2.0,2.0,99,0.00,,,0.22,meteohub,2013-03-29 06:07:00,
2013-03-28 20:12:00,65.5,65.1,29.24,NE,45,2.0,2.0,99,0.00,,,0.22,meteohub,2013-03-29 06:12:00,
2013-03-28 20:17:00,65.5,65.1,29.25,NE,45,2.0,2.0,99,0.00,,,0.22,meteohub,2013-03-29 06:17:00,
2013-03-28 20:22:00,65.3,64.9,29.24,NE,45,2.0,2.0,99,0.00,,,0.22,meteohub,2013-03-29 06:22:00,
2013-03-28 20:27:00,65.3,64.9,29.25,NE,45,2.0,2.0,99,0.00,,,0.22,meteohub,2013-03-29 06:27:00,
2013-03-28 20:32:00,65.1,64.8,29.25,NE,45,2.0,2.0,99,0.00,,,0.22,meteohub,2013-03-29 06:32:00,
2013-03-28 20:38:00,65.1,64.8,29.26,NE,45,2.0,2.0,99,0.00,,,0.22,meteohub,2013-03-29 06:38:00,
2013-03-28 20:43:00,64.9,64.6,29.25,NE,45,2.0,2.0,99,0.00,,,0.22,meteohub,2013-03-29 06:43:00,
2013-03-28 20:48:00,64.9,64.6,29.26,NE,45,1.0,2.0,99,0.00,,,0.22,meteohub,2013-03-29 06:48:00,
2013-03-28 20:53:00,64.8,64.4,29.26,NE,45,1.0,2.0,99,0.00,,,0.22,meteohub,2013-03-29 06:53:00,
2013-03-28 20:58:00,64.6,64.2,29.26,NE,45,2.0,2.0,99,0.00,,,0.22,meteohub,2013-03-29 06:58:00,
2013-03-28 21:03:00,64.6,64.2,29.26,NE,45,2.0,2.0,99,0.00,,,0.22,meteohub,2013-03-29 07:03:00,
2013-03-28 21:08:00,64.4,64.0,29.26,NE,45,2.0,2.0,99,0.00,,,0.22,meteohub,2013-03-29 07:08:00,
2013-03-28 21:13:00,64.2,63.9,29.27,NE,45,2.0,2.0,99,0.00,,,0.22,meteohub,2013-03-29 07:13:00,
2013-03-28 21:18:00,64.2,63.9,29.27,NE,45,2.0,2.0,99,0.00,,,0.22,meteohub,2013-03-29 07:18:00,
2013-03-28 21:23:00,64.0,63.7,29.27,NE,45,2.0,2.0,99,0.00,,,0.22,meteohub,2013-03-29 07:23:00,
2013-03-28 21:28:00,63.9,63.5,29.27,NE,45,1.0,2.0,99,0.00,,,0.22,meteohub,2013-03-29 07:28:00,
2013-03-28 21:33:00,63.7,63.3,29.27,NE,45,2.0,2.0,99,0.00,,,0.22,meteohub,2013-03-29 07:33:00,
2013-03-28 21:38:00,63.7,63.3,29.27,East,90,2.0,2.0,99,0.00,,,0.22,meteohub,2013-03-29 07:38:00,
2013-03-28 21:43:00,63.7,63.3,29.27,NE,45,2.0,2.0,99,0.00,,,0.22,meteohub,2013-03-29 07:43:00,
2013-03-28 21:48:00,63.7,63.3,29.27,NE,45,2.0,2.0,99,0.00,,,0.22,meteohub,2013-03-29 07:48:00,
2013-03-28 21:53:00,63.5,63.1,29.28,NE,45,2.0,2.0,99,0.00,,,0.22,meteohub,2013-03-29 07:53:00,
2013-03-28 21:58:00,63.5,63.1,29.28,NE,45,2.0,2.0,99,0.00,,,0.22,meteohub,2013-03-29 07:58:00,
2013-03-28 22:03:00,63.5,63.1,29.28,NE,45,2.0,2.0,99,0.00,,,0.22,meteohub,2013-03-29 08:03:00,
2013-03-28 22:08:00,63.5,63.1,29.28,NE,45,2.0,2.0,99,0.00,,,0.22,meteohub,2013-03-29 08:08:00,
2013-03-28 22:13:00,63.3,63.0,29.28,NE,45,2.0,2.0,99,0.00,,,0.22,meteohub,2013-03-29 08:13:00,
2013-03-28 22:18:00,63.3,63.0,29.28,NE,45,2.0,2.0,99,0.00,,,0.22,meteohub,2013-03-29 08:18:00,
2013-03-28 22:23:00,63.1,62.8,29.28,NE,45,2.0,2.0,99,0.00,,,0.22,meteohub,2013-03-29 08:23:00,
2013-03-28 22:28:00,63.1,62.8,29.28,NE,45,1.0,2.0,99,0.00,,,0.22,meteohub,2013-03-29 08:28:00,
2013-03-28 22:33:00,63.0,62.6,29.28,NE,45,2.0,2.0,99,0.00,,,0.22,meteohub,2013-03-29 08:33:00,
2013-03-28 22:38:00,62.8,62.4,29.28,NE,45,2.0,2.0,99,0.00,,,0.22,meteohub,2013-03-29 08:38:00,
2013-03-28 22:43:00,62.6,62.2,29.28,East,90,2.0,2.0,99,0.00,,,0.22,meteohub,2013-03-29 08:43:00,
2013-03-28 22:48:00,62.6,62.2,29.28,NE,45,2.0,3.0,99,0.00,,,0.22,meteohub,2013-03-29 08:48:00,
2013-03-28 22:53:00,62.4,62.1,29.28,NE,45,2.0,3.0,99,0.00,,,0.22,meteohub,2013-03-29 08:53:00,
2013-03-28 22:58:00,62.2,61.9,29.29,NE,45,2.0,3.0,99,0.00,,,0.22,meteohub,2013-03-29 08:58:00,
2013-03-28 23:03:00,62.2,61.9,29.28,NE,45,2.0,2.0,99,0.00,,,0.22,meteohub,2013-03-29 09:03:00,
2013-03-28 23:08:00,62.1,61.7,29.28,NE,45,2.0,2.0,99,0.00,,,0.22,meteohub,2013-03-29 09:08:00,
2013-03-28 23:13:00,61.9,61.5,29.29,NE,45,2.0,2.0,99,0.00,,,0.22,meteohub,2013-03-29 09:13:00,
2013-03-28 23:18:00,61.7,61.3,29.28,NE,45,1.0,2.0,99,0.00,,,0.22,meteohub,2013-03-29 09:18:00,
2013-03-28 23:23:00,61.7,61.3,29.28,NE,45,2.0,2.0,99,0.00,,,0.22,meteohub,2013-03-29 09:23:00,
2013-03-28 23:28:00,61.5,61.2,29.28,NE,45,1.0,2.0,99,0.00,,,0.22,meteohub,2013-03-29 09:28:00,
2013-03-28 23:33:00,61.3,61.0,29.28,NE,45,2.0,2.0,99,0.00,,,0.22,meteohub,2013-03-29 09:33:00,
2013-03-28 23:38:00,61.5,61.2,29.28,East,90,3.0,3.0,99,0.00,,,0.22,meteohub,2013-03-29 09:38:00,
2013-03-28 23:43:00,61.9,61.5,29.28,NE,45,3.0,3.0,99,0.00,,,0.22,meteohub,2013-03-29 09:43:00,
2013-03-28 23:48:00,62.1,61.5,29.29,NE,45,2.0,3.0,98,0.00,,,0.22,meteohub,2013-03-29 09:48:00,
2013-03-28 23:53:00,62.2,61.2,29.28,NE,45,2.0,3.0,96,0.00,,,0.22,meteohub,2013-03-29 09:53:00,
2013-03-28 23:58:00,62.2,60.8,29.28,NE,45,2.0,3.0,95,0.00,,,0.22,meteohub,2013-03-29 09:58:00,